KPBF/PBF METAR and TAF weather

Enter ICAO airport designator
Station Type Date Time Source
KPBF METAR 2019/08/19 00:53 UTC NOAA

KPBF 190053Z AUTO 10007KT 10SM CLR 26/22 A2992 RMK AO2 SLP128 T02560222


Station Type Date Time Source
KPBF Decoded METAR 2019/08/19 00:53 UTC NOAA

Station name not available
Aug 18, 2019 - 08:53 PM EDT / 2019.08.19 0053 UTC
Wind: from the E (100 degrees) at 8 MPH (7 KT):0
Visibility: 10 mile(s):0
Sky conditions: clear
Temperature: 78.1 F (25.6 C)
Dew Point: 72.0 F (22.2 C)
Relative Humidity: 81%
Pressure (altimeter): 29.92 in. Hg (1013 hPa)
ob: KPBF 190053Z AUTO 10007KT 10SM CLR 26/22 A2992 RMK AO2 SLP128 T02560222
cycle: 1

Station Type Date Time Source
KPBF TAF 2019/08/18 22:58 UTC NOAA

TAF
AMD KPBF 182157Z 1822/1918 25008KT P6SM VCTS SCT040CB BKN250
TEMPO 1822/1823 VRB20G30KT 4SM -SHRA BR BKN030
FM182300 21006KT P6SM SCT050 BKN250
FM190300 17007KT P6SM SCT250
TEMPO 1910/1914 5SM BR

Example: see airport list